Flight Track Log - Related Links

Times and Time Zones

All times are in EDT time to prevent confusion due to time zone crossing. See the SLQ9743 flight status page for this flight to view local times or setup timezone preferences in your user account.

Time Position Orientation Groundspeed Altitude Reporting Facility
EDT Latitude Longitude Course Direction KTS MPH feet Rate Location/Type
Sat 02:45:11 AM 40.6333 -73.7333 90° East 149 171 1,700  Level New York TRACON
Sat 02:46:11 AM 40.6333 -73.6833 21° North 162 186 9,200 2,050 Climbing New York TRACON
Sat 02:47:11 AM 40.6667 -73.6667 323° Northwest 167 192 5,800 -700 Descending New York TRACON
Sat 02:48:11 AM 40.7000 -73.7000 333° Northwest 153 176 7,800 1,950 Climbing New York TRACON
Sat 02:49:11 AM 40.7500 -73.7333 323° Northwest 164 189 9,700 1,950 Climbing New York TRACON
Sat 02:50:11 AM 40.7833 -73.7667 323° Northwest 169 194 11,700 1,877 Climbing New York TRACON
Sat 02:52:10 AM 40.8572 -73.8411 327° Northwest 168 193 15,300 1,667 Climbing New York Center
Sat 02:53:11 AM 40.8939 -73.8731 318° Northwest 163 188 16,700 893 Climbing New York Center
Sat 02:54:11 AM 40.9342 -73.9217 327° Northwest 185 213 17,100 1,059 Climbing New York Center
Sat 02:55:10 AM 40.9789 -73.9594 326° Northwest 198 228 18,800 1,412 Climbing New York Center
Sat 02:56:10 AM 41.0178 -73.9942 296° West 181 208 19,900 600 Climbing New York Center
Sat 02:57:10 AM 41.0408 -74.0558 297° West 171 197 20,000 50 Climbing New York Center
Sat 02:58:10 AM 41.0681 -74.1258 302° West 195 224 20,000  Level New York Center
Sat 02:59:10 AM 41.0956 -74.1850 301° West 215 247 20,000 50 Level New York Center
Sat 03:00:10 AM 41.1347 -74.2725 303° West 228 262 20,100  Climbing New York Center
Sat 03:01:10 AM 41.1719 -74.3489 297° West 233 268 20,000 -50 Descending New York Center
Sat 03:02:11 AM 41.2028 -74.4278 301° West 234 269 20,000  Level New York Center
Sat 03:03:11 AM 41.2361 -74.5011 301° West 234 269 20,000 50 Level New York Center
Sat 03:04:10 AM 41.2692 -74.5747 300° West 239 275 20,100  Climbing New York Center
Sat 03:05:11 AM 41.3019 -74.6511 297° West 232 267 20,000 -49 Descending New York Center
Sat 03:06:12 AM 41.3269 -74.7161 300° West 232 267 20,000  Level New York Center
Sat 03:07:10 AM 41.3558 -74.7842 300° West 227 261 20,000  Level New York Center
Sat 03:08:10 AM 41.3847 -74.8522 301° West 227 261 20,000  Level New York Center
Sat 03:09:10 AM 41.4156 -74.9206 299° West 222 255 20,000 50 Level New York Center
Sat 03:10:11 AM 41.4444 -74.9889 301° West 217 250 20,100 50 Climbing New York Center
Sat 03:11:10 AM 41.4733 -75.0542 301° West 217 250 20,100 -50 Level New York Center
Sat 03:12:10 AM 41.5042 -75.1228 302° West 211 243 20,000  Descending New York Center
Sat 03:13:12 AM 41.5350 -75.1883 301° West 211 243 20,100  Climbing New York Center
Sat 03:14:10 AM 41.5678 -75.2600 298° West 217 250 20,000 -50 Descending New York Center
Sat 03:15:12 AM 41.5944 -75.3283 299° West 217 250 20,000 50 Level New York Center
Sat 03:16:11 AM 41.6231 -75.3967 305° West 212 244 20,100 51 Climbing New York Center
Sat 03:17:10 AM 41.6558 -75.4603 294° West 212 244 20,100  Level New York Center
Sat 03:18:11 AM 41.6800 -75.5314 297° West 212 244 20,100  Level New York Center
Sat 03:19:10 AM 41.7064 -75.5997 296° West 212 244 20,100 -50 Level New York Center
Sat 03:20:11 AM 41.7328 -75.6711 303° West 207 238 20,000 -49 Descending New York Center
Sat 03:21:12 AM 41.7653 -75.7375 297° West 207 238 20,000  Level New York Center
Sat 03:22:12 AM 41.7917 -75.8064 300° West 207 238 20,000  Level New York Center
Sat 03:23:10 AM 41.8219 -75.8756 300° West 207 238 20,000  Level New York Center
Sat 03:24:11 AM 41.8503 -75.9417 299° West 207 238 20,000  Level New York Center
Sat 03:25:11 AM 41.8786 -76.0106 301° West 207 238 20,000  Level New York Center
Sat 03:26:11 AM 41.9128 -76.0858 299° West 207 238 20,000  Level New York Center
Sat 03:27:11 AM 41.9408 -76.1550 297° West 212 244 20,000  Level New York Center
Sat 03:28:11 AM 41.9667 -76.2242 303° West 212 244 20,000  Level New York Center
Sat 03:29:11 AM 41.9992 -76.2908 307° West 207 238 20,000 -50 Level New York Center
Sat 03:30:11 AM 42.0336 -76.3525 292° West 207 238 19,900  Descending New York Center
Sat 03:31:10 AM 42.0553 -76.4242 297° West 212 244 20,000 50 Climbing New York Center
Sat 03:32:11 AM 42.0831 -76.4964 297° West 212 244 20,000  Level New York Center
Sat 03:33:11 AM 42.1089 -76.5656 298° West 212 244 20,000 50 Level New York Center
Sat 03:34:10 AM 42.1367 -76.6353 300° West 212 244 20,100  Climbing New York Center
Sat 03:34:59 AM 42.1586 -76.6864 299° West 211 243 20,000 -110 Descending Cleveland Center
Sat 03:35:59 AM 42.1883 -76.7603 297° West 216 249 19,900  Descending Cleveland Center
Sat 03:36:59 AM 42.2158 -76.8317 297° West 216 249 20,000 50 Climbing Cleveland Center
Sat 03:37:59 AM 42.2431 -76.9031 299° West 216 249 20,000 50 Level Cleveland Center
Sat 03:38:59 AM 42.2700 -76.9689 300° West 216 249 20,100  Climbing Cleveland Center
Sat 03:39:59 AM 42.2994 -77.0372 300° West 211 243 20,000 -50 Descending Cleveland Center
Sat 03:40:59 AM 42.3286 -77.1058 296° West 219 252 20,000  Level Cleveland Center
Sat 03:41:59 AM 42.3536 -77.1747 300° West 214 246 20,000  Level Cleveland Center
Sat 03:42:59 AM 42.3828 -77.2436 298° West 209 241 20,000  Level Cleveland Center
Sat 03:43:59 AM 42.4097 -77.3125 301° West 209 241 20,000 50 Level Cleveland Center
Sat 03:44:59 AM 42.4386 -77.3786 296° West 214 246 20,100 50 Climbing Cleveland Center
Sat 03:45:59 AM 42.4611 -77.4422 299° West 214 246 20,100 -50 Level Cleveland Center
Sat 03:46:59 AM 42.4925 -77.5194 299° West 214 246 20,000 -50 Descending Cleveland Center
Sat 03:47:59 AM 42.5192 -77.5858 296° West 209 241 20,000  Level Cleveland Center
Sat 03:48:59 AM 42.5439 -77.6550 300° West 209 241 20,000  Level Cleveland Center
Sat 03:49:59 AM 42.5728 -77.7242 300° West 209 241 20,000 50 Level Cleveland Center
Sat 03:50:59 AM 42.6014 -77.7906 296° West 209 241 20,100  Climbing Cleveland Center
Sat 03:51:59 AM 42.6261 -77.8600 302° West 209 241 20,000 -50 Descending Cleveland Center
Sat 03:52:59 AM 42.6569 -77.9264 296° West 209 241 20,000  Level Cleveland Center
Sat 03:53:59 AM 42.6814 -77.9933 296° West 203 234 20,000  Level Cleveland Center
Sat 03:54:59 AM 42.7078 -78.0656 298° West 208 239 20,000  Level Cleveland Center
Sat 03:55:59 AM 42.7322 -78.1269 298° West 208 239 20,000 -100 Level Cleveland Center
Sat 03:56:59 AM 42.7586 -78.1936 295° West 208 239 19,800 -650 Descending Cleveland Center
Sat 03:57:59 AM 42.7853 -78.2719 299° West 214 246 18,700 -1,000 Descending Cleveland Center
Sat 03:58:59 AM 42.8181 -78.3528 297° West 232 267 17,800 -950 Descending Cleveland Center
Sat 03:59:59 AM 42.8489 -78.4367 298° West 238 274 16,800 -950 Descending Cleveland Center
Sat 04:00:59 AM 42.8817 -78.5206 297° West 244 281 15,900 -950 Descending Cleveland Center
Sat 04:01:59 AM 42.9144 -78.6072 293° West 244 281 14,900 -1,300 Descending Cleveland Center
Sat 04:02:59 AM 42.9431 -78.6972 283° West 249 287 13,300 -1,450 Descending Cleveland Center
Sat 04:03:59 AM 42.9592 -78.7931 285° West 254 292 12,000 -1,250 Descending Cleveland Center
Sat 04:04:59 AM 42.9772 -78.8864 278° West 254 292 10,800 -1,190 Descending Cleveland Center
Sat 04:05:55 AM 42.9833 -78.9500 285° West 250 288 9,700 -1,552 Descending Toronto Center
Sat 04:06:55 AM 43.0000 -79.0333 283° West 240 276 7,800 -2,100 Descending Toronto Center
Sat 04:07:55 AM 43.0167 -79.1333 285° West 250 288 5,500 -2,050 Descending Toronto Center
Sat 04:08:55 AM 43.0333 -79.2167 283° West 250 288 3,700 -1,200 Descending Toronto Center
Sat 04:09:55 AM 43.0500 -79.3167 285° West 250 288 3,100 -300 Descending Toronto Center
Sat 04:10:55 AM 43.0667 -79.4000 289° West 230 265 3,100  Level Toronto Center
Sat 04:11:55 AM 43.0833 -79.4667 289° West 220 253 3,100  Level Toronto Center

Login

Don't have an account? Register now (free) for customized features, flight alerts, and more!